sensor_id;sensor_type;location;lat;lon;timestamp;pressure;altitude;pressure_sealevel;temperature;humidity
61014;BME280;46899;47.542;19.082;2022-11-10T00:02:28;100803.78;;;9.96;100.00
61014;BME280;46899;47.542;19.082;2022-11-10T00:05:49;100802.22;;;9.89;100.00
61014;BME280;46899;47.542;19.082;2022-11-10T00:09:10;100807.31;;;9.92;100.00
61014;BME280;46899;47.542;19.082;2022-11-10T00:12:31;100798.59;;;9.94;100.00
61014;BME280;46899;47.542;19.082;2022-11-10T00:15:52;100814.81;;;10.04;100.00
61014;BME280;46899;47.542;19.082;2022-11-10T00:19:33;100814.00;;;10.02;100.00
61014;BME280;46899;47.542;19.082;2022-11-10T00:22:54;100816.53;;;10.03;100.00
61014;BME280;46899;47.542;19.082;2022-11-10T00:26:16;100821.22;;;9.91;100.00
61014;BME280;46899;47.542;19.082;2022-11-10T00:29:38;100818.69;;;9.88;100.00
61014;BME280;46899;47.542;19.082;2022-11-10T00:32:58;100827.56;;;9.79;100.00
61014;BME280;46899;47.542;19.082;2022-11-10T00:36:19;100834.47;;;9.80;100.00
61014;BME280;46899;47.542;19.082;2022-11-10T00:39:40;100829.09;;;9.88;100.00
61014;BME280;46899;47.542;19.082;2022-11-10T00:43:01;100827.47;;;9.82;100.00
61014;BME280;46899;47.542;19.082;2022-11-10T00:46:22;100827.56;;;9.79;100.00
61014;BME280;46899;47.542;19.082;2022-11-10T00:49:42;100832.06;;;9.73;100.00
61014;BME280;46899;47.542;19.082;2022-11-10T00:53:03;100836.34;;;9.74;100.00
61014;BME280;46899;47.542;19.082;2022-11-10T00:56:24;100832.12;;;9.70;100.00
61014;BME280;46899;47.542;19.082;2022-11-10T00:59:45;100830.97;;;9.81;100.00
61014;BME280;46899;47.542;19.082;2022-11-10T01:03:06;100833.53;;;9.83;100.00
61014;BME280;46899;47.542;19.082;2022-11-10T01:06:28;100828.22;;;9.89;100.00
61014;BME280;46899;47.542;19.082;2022-11-10T01:09:48;100822.09;;;9.90;100.00
61014;BME280;46899;47.542;19.082;2022-11-10T01:13:09;100829.09;;;9.88;100.00
61014;BME280;46899;47.542;19.082;2022-11-10T01:16:30;100819.50;;;9.90;100.00
61014;BME280;46899;47.542;19.082;2022-11-10T01:19:51;100822.25;;;9.84;100.00
61014;BME280;46899;47.542;19.082;2022-11-10T01:23:11;100811.81;;;9.85;100.00
61014;BME280;46899;47.542;19.082;2022-11-10T01:26:32;100820.53;;;9.83;100.00
61014;BME280;46899;47.542;19.082;2022-11-10T01:29:53;100816.78;;;9.94;100.00
61014;BME280;46899;47.542;19.082;2022-11-10T01:33:14;100819.38;;;9.94;100.00
61014;BME280;46899;47.542;19.082;2022-11-10T01:36:36;100818.69;;;9.88;100.00
61014;BME280;46899;47.542;19.082;2022-11-10T01:39:58;100828.44;;;9.80;100.00
61014;BME280;46899;47.542;19.082;2022-11-10T01:43:19;100828.44;;;9.80;100.00
61014;BME280;46899;47.542;19.082;2022-11-10T01:46:40;100832.78;;;9.79;100.00
61014;BME280;46899;47.542;19.082;2022-11-10T01:50:01;100824.22;;;9.74;100.00
61014;BME280;46899;47.542;19.082;2022-11-10T01:53:22;100831.91;;;9.79;100.00
61014;BME280;46899;47.542;19.082;2022-11-10T01:56:45;100831.06;;;9.78;100.00
61014;BME280;46899;47.542;19.082;2022-11-10T02:00:07;100823.25;;;9.80;100.00
61014;BME280;46899;47.542;19.082;2022-11-10T02:03:39;100828.28;;;9.86;100.00
61014;BME280;46899;47.542;19.082;2022-11-10T02:07:02;100822.25;;;9.84;100.00
61014;BME280;46899;47.542;19.082;2022-11-10T02:10:24;100830.88;;;9.86;100.00
61014;BME280;46899;47.542;19.082;2022-11-10T02:13:45;100827.47;;;9.84;100.00
61014;BME280;46899;47.542;19.082;2022-11-10T02:17:06;100830.88;;;9.86;100.00
61014;BME280;46899;47.542;19.082;2022-11-10T02:20:27;100832.66;;;9.82;100.00
61014;BME280;46899;47.542;19.082;2022-11-10T02:23:49;100830.91;;;9.84;100.00
61014;BME280;46899;47.542;19.082;2022-11-10T02:27:10;100834.22;;;9.89;100.00
61014;BME280;46899;47.542;19.082;2022-11-10T02:30:31;100841.19;;;9.89;100.00
61014;BME280;46899;47.542;19.082;2022-11-10T02:33:52;100834.22;;;9.89;100.00
61014;BME280;46899;47.542;19.082;2022-11-10T02:37:12;100845.25;;;9.99;100.00
61014;BME280;46899;47.542;19.082;2022-11-10T02:40:33;100837.78;;;9.87;100.00
61014;BME280;46899;47.542;19.082;2022-11-10T02:43:54;100847.34;;;9.85;100.00
61014;BME280;46899;47.542;19.082;2022-11-10T02:47:16;100851.44;;;9.95;100.00
61014;BME280;46899;47.542;19.082;2022-11-10T02:50:37;100854.19;;;9.89;100.00
61014;BME280;46899;47.542;19.082;2022-11-10T02:53:57;100857.63;;;9.89;100.00
61014;BME280;46899;47.542;19.082;2022-11-10T02:57:18;100853.22;;;9.93;100.00
61014;BME280;46899;47.542;19.082;2022-11-10T03:00:39;100857.66;;;9.88;100.00
61014;BME280;46899;47.542;19.082;2022-11-10T03:04:00;100866.28;;;9.90;100.00
61014;BME280;46899;47.542;19.082;2022-11-10T03:07:21;100868.00;;;9.91;100.00
61014;BME280;46899;47.542;19.082;2022-11-10T03:10:42;100876.63;;;9.93;100.00
61014;BME280;46899;47.542;19.082;2022-11-10T03:14:02;100874.75;;;9.98;100.00
61014;BME280;46899;47.542;19.082;2022-11-10T03:17:23;100872.97;;;10.00;100.00
61014;BME280;46899;47.542;19.082;2022-11-10T03:20:45;100878.28;;;9.95;100.00
61014;BME280;46899;47.542;19.082;2022-11-10T03:24:06;100880.31;;;9.83;100.00
61014;BME280;46899;47.542;19.082;2022-11-10T03:27:27;100878.69;;;9.79;100.00
61014;BME280;46899;47.542;19.082;2022-11-10T03:30:48;100887.66;;;9.66;100.00
61014;BME280;46899;47.542;19.082;2022-11-10T03:34:09;100897.87;;;9.73;100.00
61014;BME280;46899;47.542;19.082;2022-11-10T03:37:30;100895.41;;;9.67;100.00
61014;BME280;46899;47.542;19.082;2022-11-10T03:40:51;100893.16;;;9.52;100.00
61014;BME280;46899;47.542;19.082;2022-11-10T03:44:31;100895.91;;;9.44;100.00
61014;BME280;46899;47.542;19.082;2022-11-10T03:47:52;100896.34;;;9.23;100.00
61014;BME280;46899;47.542;19.082;2022-11-10T03:51:13;100898.47;;;9.06;100.00
61014;BME280;46899;47.542;19.082;2022-11-10T03:54:34;100900.16;;;9.07;100.00
61014;BME280;46899;47.542;19.082;2022-11-10T03:57:55;100902.22;;;8.91;100.00
61014;BME280;46899;47.542;19.082;2022-11-10T04:01:15;100905.06;;;8.78;100.00
61014;BME280;46899;47.542;19.082;2022-11-10T04:04:36;100909.41;;;8.77;100.00
61014;BME280;46899;47.542;19.082;2022-11-10T04:08:16;100911.63;;;8.97;100.00
61014;BME280;46899;47.542;19.082;2022-11-10T04:11:56;100901.37;;;9.32;100.00
61014;BME280;46899;47.542;19.082;2022-11-10T04:15:41;100910.00;;;9.33;100.00
61014;BME280;46899;47.542;19.082;2022-11-10T04:19:02;100913.09;;;9.50;100.00
61014;BME280;46899;47.542;19.082;2022-11-10T04:22:23;100917.44;;;9.49;100.00
61014;BME280;46899;47.542;19.082;2022-11-10T04:26:04;100920.03;;;9.49;100.00
61014;BME280;46899;47.542;19.082;2022-11-10T04:29:44;100926.66;;;9.64;100.00
61014;BME280;46899;47.542;19.082;2022-11-10T04:33:05;100923.00;;;9.73;100.00
61014;BME280;46899;47.542;19.082;2022-11-10T04:36:27;100931.69;;;9.72;100.00
61014;BME280;46899;47.542;19.082;2022-11-10T04:39:48;100940.31;;;9.74;100.00
61014;BME280;46899;47.542;19.082;2022-11-10T04:43:09;100934.94;;;9.81;100.00
61014;BME280;46899;47.542;19.082;2022-11-10T04:46:39;100935.81;;;9.82;100.00
61014;BME280;46899;47.542;19.082;2022-11-10T04:49:59;100925.47;;;9.79;100.00
61014;BME280;46899;47.542;19.082;2022-11-10T04:53:20;100926.13;;;9.88;100.00
61014;BME280;46899;47.542;19.082;2022-11-10T04:56:42;100932.88;;;9.95;100.00
61014;BME280;46899;47.542;19.082;2022-11-10T05:00:03;100931.16;;;9.94;100.00
61014;BME280;46899;47.542;19.082;2022-11-10T05:03:24;100941.81;;;9.84;100.00
61014;BME280;46899;47.542;19.082;2022-11-10T05:06:46;100947.81;;;9.86;100.00
61014;BME280;46899;47.542;19.082;2022-11-10T05:10:06;100955.56;;;9.87;100.00
61014;BME280;46899;47.542;19.082;2022-11-10T05:13:27;100965.06;;;9.90;100.00
61014;BME280;46899;47.542;19.082;2022-11-10T05:16:48;100970.94;;;9.98;100.00
61014;BME280;46899;47.542;19.082;2022-11-10T05:20:09;100960.56;;;9.96;100.00
61014;BME280;46899;47.542;19.082;2022-11-10T05:23:29;100973.56;;;9.98;100.00
61014;BME280;46899;47.542;19.082;2022-11-10T05:26:59;100971.16;;;9.89;100.00
61014;BME280;46899;47.542;19.082;2022-11-10T05:30:22;100975.41;;;9.93;100.00
61014;BME280;46899;47.542;19.082;2022-11-10T05:33:43;100973.59;;;9.95;100.00
61014;BME280;46899;47.542;19.082;2022-11-10T05:37:04;100978.84;;;9.93;100.00
61014;BME280;46899;47.542;19.082;2022-11-10T05:40:24;100987.56;;;9.91;100.00
61014;BME280;46899;47.542;19.082;2022-11-10T05:43:45;100993.75;;;9.87;100.00
61014;BME280;46899;47.542;19.082;2022-11-10T05:47:06;101001.59;;;9.84;100.00
61014;BME280;46899;47.542;19.082;2022-11-10T05:50:28;101006.53;;;9.96;100.00
61014;BME280;46899;47.542;19.082;2022-11-10T05:53:49;101013.19;;;10.07;100.00
61014;BME280;46899;47.542;19.082;2022-11-10T05:57:10;101015.72;;;10.12;100.00
61014;BME280;46899;47.542;19.082;2022-11-10T06:00:31;101019.28;;;10.06;100.00
61014;BME280;46899;47.542;19.082;2022-11-10T06:03:52;101020.91;;;10.10;100.00
61014;BME280;46899;47.542;19.082;2022-11-10T06:07:13;101028.72;;;10.12;100.00
61014;BME280;46899;47.542;19.082;2022-11-10T06:10:35;101034.69;;;10.17;100.00
61014;BME280;46899;47.542;19.082;2022-11-10T06:13:56;101037.06;;;10.26;100.00
61014;BME280;46899;47.542;19.082;2022-11-10T06:17:17;101044.06;;;10.22;100.00
61014;BME280;46899;47.542;19.082;2022-11-10T06:20:38;101052.84;;;10.18;100.00
61014;BME280;46899;47.542;19.082;2022-11-10T06:23:59;101055.28;;;10.26;100.00
61014;BME280;46899;47.542;19.082;2022-11-10T06:27:19;101058.75;;;10.26;100.00
61014;BME280;46899;47.542;19.082;2022-11-10T06:30:41;101071.50;;;10.37;100.00
61014;BME280;46899;47.542;19.082;2022-11-10T06:34:01;101073.28;;;10.35;100.00
61014;BME280;46899;47.542;19.082;2022-11-10T06:37:22;101085.31;;;10.39;100.00
61014;BME280;46899;47.542;19.082;2022-11-10T06:40:43;101081.78;;;10.43;100.00
61014;BME280;46899;47.542;19.082;2022-11-10T06:44:03;101092.84;;;10.53;100.00
61014;BME280;46899;47.542;19.082;2022-11-10T06:47:25;101089.38;;;10.52;100.00
61014;BME280;46899;47.542;19.082;2022-11-10T06:50:47;101098.75;;;10.59;100.00
61014;BME280;46899;47.542;19.082;2022-11-10T06:54:07;101099.44;;;10.66;100.00
61014;BME280;46899;47.542;19.082;2022-11-10T06:57:28;101101.87;;;10.73;100.00
61014;BME280;46899;47.542;19.082;2022-11-10T07:00:49;101125.22;;;10.76;100.00
61014;BME280;46899;47.542;19.082;2022-11-10T07:04:10;101123.38;;;10.81;100.00
61014;BME280;46899;47.542;19.082;2022-11-10T07:07:40;101123.56;;;10.74;100.00
61014;BME280;46899;47.542;19.082;2022-11-10T07:11:01;101125.84;;;10.86;100.00
61014;BME280;46899;47.542;19.082;2022-11-10T07:14:21;101132.09;;;10.80;100.00
61014;BME280;46899;47.542;19.082;2022-11-10T07:17:42;101136.31;;;10.84;100.00
61014;BME280;46899;47.542;19.082;2022-11-10T07:21:03;101141.47;;;10.87;100.00
61014;BME280;46899;47.542;19.082;2022-11-10T07:24:24;101139.59;;;10.92;100.00
61014;BME280;46899;47.542;19.082;2022-11-10T07:27:50;101139.59;;;10.92;100.00
61014;BME280;46899;47.542;19.082;2022-11-10T07:31:12;101149.28;;;10.87;100.00
61014;BME280;46899;47.542;19.082;2022-11-10T07:34:33;101150.09;;;10.89;100.00
61014;BME280;46899;47.542;19.082;2022-11-10T07:37:54;101151.00;;;10.87;100.00
61014;BME280;46899;47.542;19.082;2022-11-10T07:41:16;101159.47;;;10.96;100.00
61014;BME280;46899;47.542;19.082;2022-11-10T07:44:36;101167.00;;;11.09;100.00
61014;BME280;46899;47.542;19.082;2022-11-10T07:48:01;101182.16;;;11.27;100.00
61014;BME280;46899;47.542;19.082;2022-11-10T07:51:22;101173.13;;;11.41;100.00
61014;BME280;46899;47.542;19.082;2022-11-10T07:54:43;101180.88;;;11.44;100.00
61014;BME280;46899;47.542;19.082;2022-11-10T07:58:03;101182.87;;;11.33;100.00
61014;BME280;46899;47.542;19.082;2022-11-10T08:01:24;101188.72;;;11.43;100.00
61014;BME280;46899;47.542;19.082;2022-11-10T08:04:45;101181.75;;;11.43;100.00
61014;BME280;46899;47.542;19.082;2022-11-10T08:08:06;101187.19;;;11.34;100.00
61014;BME280;46899;47.542;19.082;2022-11-10T08:11:28;101184.94;;;11.54;100.00
61014;BME280;46899;47.542;19.082;2022-11-10T08:14:48;101190.16;;;11.88;100.00
61014;BME280;46899;47.542;19.082;2022-11-10T08:18:19;101201.25;;;11.96;100.00
61014;BME280;46899;47.542;19.082;2022-11-10T08:21:41;101201.28;;;11.95;100.00
61014;BME280;46899;47.542;19.082;2022-11-10T08:25:01;101204.38;;;12.09;100.00
61014;BME280;46899;47.542;19.082;2022-11-10T08:28:22;101205.47;;;12.00;100.00
61014;BME280;46899;47.542;19.082;2022-11-10T08:31:43;101209.47;;;12.13;100.00
61014;BME280;46899;47.542;19.082;2022-11-10T08:35:04;101213.59;;;12.20;100.00
61014;BME280;46899;47.542;19.082;2022-11-10T08:38:24;101213.91;;;12.41;100.00
61014;BME280;46899;47.542;19.082;2022-11-10T08:41:45;101224.16;;;12.47;100.00
61014;BME280;46899;47.542;19.082;2022-11-10T08:45:06;101232.22;;;12.39;100.00
61014;BME280;46899;47.542;19.082;2022-11-10T08:48:27;101232.41;;;12.33;100.00
61014;BME280;46899;47.542;19.082;2022-11-10T08:51:47;101246.59;;;12.23;100.00
61014;BME280;46899;47.542;19.082;2022-11-10T08:55:08;101241.13;;;12.00;100.00
61014;BME280;46899;47.542;19.082;2022-11-10T08:58:29;101251.84;;;12.21;100.00
61014;BME280;46899;47.542;19.082;2022-11-10T09:01:50;101255.34;;;12.53;100.00
61014;BME280;46899;47.542;19.082;2022-11-10T09:05:11;101267.41;;;12.57;100.00
61014;BME280;46899;47.542;19.082;2022-11-10T09:08:31;101266.78;;;12.78;100.00
61014;BME280;46899;47.542;19.082;2022-11-10T09:11:53;101275.38;;;12.81;100.00
61014;BME280;46899;47.542;19.082;2022-11-10T09:15:14;101277.22;;;12.78;100.00
61014;BME280;46899;47.542;19.082;2022-11-10T09:18:36;101279.56;;;12.87;100.00
61014;BME280;46899;47.542;19.082;2022-11-10T09:21:56;101287.13;;;12.96;100.00
61014;BME280;46899;47.542;19.082;2022-11-10T09:25:17;101292.00;;;13.08;100.00
61014;BME280;46899;47.542;19.082;2022-11-10T09:28:38;101283.63;;;12.97;100.00
61014;BME280;46899;47.542;19.082;2022-11-10T09:31:58;101297.53;;;12.97;100.00
61014;BME280;46899;47.542;19.082;2022-11-10T09:35:20;101296.50;;;12.74;100.00
61014;BME280;46899;47.542;19.082;2022-11-10T09:38:41;101300.19;;;12.67;100.00
61014;BME280;46899;47.542;19.082;2022-11-10T09:42:05;101296.03;;;12.60;100.00
61014;BME280;46899;47.542;19.082;2022-11-10T09:45:40;101299.91;;;12.76;100.00
61014;BME280;46899;47.542;19.082;2022-11-10T09:52:32;101316.75;;;12.66;100.00
61014;BME280;46899;47.542;19.082;2022-11-10T09:55:55;101316.53;;;12.43;100.00
61014;BME280;46899;47.542;19.082;2022-11-10T09:59:22;101315.03;;;12.32;100.00
61014;BME280;46899;47.542;19.082;2022-11-10T10:02:47;101316.09;;;12.27;100.00
61014;BME280;46899;47.542;19.082;2022-11-10T10:06:11;101301.00;;;12.36;100.00
61014;BME280;46899;47.542;19.082;2022-11-10T10:13:19;101308.22;;;12.90;100.00
61014;BME280;46899;47.542;19.082;2022-11-10T10:23:56;101317.44;;;13.31;100.00
61014;BME280;46899;47.542;19.082;2022-11-10T10:27:39;101311.97;;;13.38;100.00
61014;BME280;46899;47.542;19.082;2022-11-10T10:31:06;101326.34;;;13.25;100.00
61014;BME280;46899;47.542;19.082;2022-11-10T10:34:30;101329.41;;;13.39;100.00
61014;BME280;46899;47.542;19.082;2022-11-10T10:37:54;101330.00;;;13.20;100.00
61014;BME280;46899;47.542;19.082;2022-11-10T10:41:29;101325.94;;;13.10;100.00
61014;BME280;46899;47.542;19.082;2022-11-10T10:48:43;101337.91;;;13.17;100.00
61014;BME280;46899;47.542;19.082;2022-11-10T10:55:31;101338.78;;;13.17;100.00
61014;BME280;46899;47.542;19.082;2022-11-10T11:02:21;101331.75;;;13.75;100.00
61014;BME280;46899;47.542;19.082;2022-11-10T11:05:55;101333.91;;;13.88;98.77
61014;BME280;46899;47.542;19.082;2022-11-10T11:09:22;101331.78;;;13.99;98.18
61014;BME280;46899;47.542;19.082;2022-11-10T11:12:43;101337.06;;;14.24;96.92
61014;BME280;46899;47.542;19.082;2022-11-10T11:16:04;101341.00;;;14.37;97.48
61014;BME280;46899;47.542;19.082;2022-11-10T11:19:34;101345.53;;;14.57;92.80
61014;BME280;46899;47.542;19.082;2022-11-10T11:22:55;101339.22;;;14.13;96.97
61014;BME280;46899;47.542;19.082;2022-11-10T11:44:18;101379.81;;;12.83;100.00
61014;BME280;46899;47.542;19.082;2022-11-10T11:55:09;101380.16;;;12.37;100.00
61014;BME280;46899;47.542;19.082;2022-11-10T11:58:43;101377.59;;;12.35;100.00
61014;BME280;46899;47.542;19.082;2022-11-10T12:02:18;101368.97;;;12.33;100.00
61014;BME280;46899;47.542;19.082;2022-11-10T12:09:10;101393.28;;;12.35;100.00
61014;BME280;46899;47.542;19.082;2022-11-10T12:12:57;101393.41;;;12.29;100.00
61014;BME280;46899;47.542;19.082;2022-11-10T12:19:38;101391.72;;;12.28;100.00
61014;BME280;46899;47.542;19.082;2022-11-10T12:29:52;101399.47;;;12.31;100.00
61014;BME280;46899;47.542;19.082;2022-11-10T12:36:35;101419.31;;;12.02;100.00
61014;BME280;46899;47.542;19.082;2022-11-10T12:40:00;101409.91;;;11.96;100.00
61014;BME280;46899;47.542;19.082;2022-11-10T12:46:52;101411.38;;;12.08;100.00
61014;BME280;46899;47.542;19.082;2022-11-10T12:53:36;101417.28;;;12.14;100.00
61014;BME280;46899;47.542;19.082;2022-11-10T13:00:53;101428.88;;;12.38;100.00
61014;BME280;46899;47.542;19.082;2022-11-10T13:04:15;101430.03;;;12.26;100.00
61014;BME280;46899;47.542;19.082;2022-11-10T13:07:37;101426.22;;;12.40;100.00
61014;BME280;46899;47.542;19.082;2022-11-10T13:14:33;101427.25;;;12.34;100.00
61014;BME280;46899;47.542;19.082;2022-11-10T13:17:54;101433.66;;;12.21;100.00
61014;BME280;46899;47.542;19.082;2022-11-10T13:21:16;101441.53;;;12.19;100.00
61014;BME280;46899;47.542;19.082;2022-11-10T13:24:37;101445.81;;;12.22;100.00
61014;BME280;46899;47.542;19.082;2022-11-10T13:27:59;101431.03;;;12.21;100.00
61014;BME280;46899;47.542;19.082;2022-11-10T13:34:46;101442.34;;;12.21;100.00
61014;BME280;46899;47.542;19.082;2022-11-10T13:38:16;101453.59;;;12.23;100.00
61014;BME280;46899;47.542;19.082;2022-11-10T13:41:43;101448.72;;;12.10;100.00
61014;BME280;46899;47.542;19.082;2022-11-10T13:52:44;101465.28;;;12.07;100.00
61014;BME280;46899;47.542;19.082;2022-11-10T13:59:47;101465.66;;;11.91;100.00
61014;BME280;46899;47.542;19.082;2022-11-10T14:06:49;101462.56;;;11.75;100.00
61014;BME280;46899;47.542;19.082;2022-11-10T14:10:17;101465.34;;;11.64;100.00
61014;BME280;46899;47.542;19.082;2022-11-10T14:13:41;101481.88;;;11.63;100.00
61014;BME280;46899;47.542;19.082;2022-11-10T14:17:03;101482.06;;;11.56;100.00
61014;BME280;46899;47.542;19.082;2022-11-10T14:20:31;101485.53;;;11.55;100.00
61014;BME280;46899;47.542;19.082;2022-11-10T14:24:08;101496.00;;;11.53;100.00
61014;BME280;46899;47.542;19.082;2022-11-10T14:27:31;101494.19;;;11.57;100.00
61014;BME280;46899;47.542;19.082;2022-11-10T14:30:54;101503.72;;;11.58;100.00
61014;BME280;46899;47.542;19.082;2022-11-10T14:34:15;101509.81;;;11.57;100.00
61014;BME280;46899;47.542;19.082;2022-11-10T14:37:37;101497.81;;;11.50;100.00
61014;BME280;46899;47.542;19.082;2022-11-10T14:41:04;101505.63;;;11.50;100.00
61014;BME280;46899;47.542;19.082;2022-11-10T14:44:26;101505.69;;;11.47;100.00
61014;BME280;46899;47.542;19.082;2022-11-10T14:51:14;101498.00;;;11.41;100.00
61014;BME280;46899;47.542;19.082;2022-11-10T14:54:35;101504.16;;;11.35;100.00
61014;BME280;46899;47.542;19.082;2022-11-10T15:04:54;101509.38;;;11.37;100.00
61014;BME280;46899;47.542;19.082;2022-11-10T15:08:16;101508.59;;;11.32;100.00
61014;BME280;46899;47.542;19.082;2022-11-10T15:11:39;101512.94;;;11.31;100.00
61014;BME280;46899;47.542;19.082;2022-11-10T15:15:00;101519.94;;;11.29;100.00
61014;BME280;46899;47.542;19.082;2022-11-10T15:18:22;101520.12;;;11.20;100.00
61014;BME280;46899;47.542;19.082;2022-11-10T15:21:44;101527.88;;;11.22;100.00
61014;BME280;46899;47.542;19.082;2022-11-10T15:25:11;101531.41;;;11.21;100.00
61014;BME280;46899;47.542;19.082;2022-11-10T15:28:33;101522.63;;;11.25;100.00
61014;BME280;46899;47.542;19.082;2022-11-10T15:31:58;101538.25;;;11.25;100.00
61014;BME280;46899;47.542;19.082;2022-11-10T15:38:42;101538.81;;;11.40;100.00
61014;BME280;46899;47.542;19.082;2022-11-10T15:42:10;101551.75;;;11.46;100.00
61014;BME280;46899;47.542;19.082;2022-11-10T15:45:31;101555.13;;;11.50;100.00
61014;BME280;46899;47.542;19.082;2022-11-10T15:48:52;101560.22;;;11.57;100.00
61014;BME280;46899;47.542;19.082;2022-11-10T15:52:14;101563.69;;;11.56;100.00
61014;BME280;46899;47.542;19.082;2022-11-10T15:55:35;101582.69;;;11.63;100.00
61014;BME280;46899;47.542;19.082;2022-11-10T15:58:56;101587.00;;;11.64;100.00
61014;BME280;46899;47.542;19.082;2022-11-10T16:02:22;101571.34;;;11.65;100.00
61014;BME280;46899;47.542;19.082;2022-11-10T16:05:44;101585.97;;;11.74;100.00
61014;BME280;46899;47.542;19.082;2022-11-10T16:09:05;101594.72;;;11.72;100.00
61014;BME280;46899;47.542;19.082;2022-11-10T16:12:26;101596.91;;;11.47;100.00
61014;BME280;46899;47.542;19.082;2022-11-10T16:15:49;101590.38;;;11.25;100.00
61014;BME280;46899;47.542;19.082;2022-11-10T16:19:10;101601.94;;;11.07;100.00
61014;BME280;46899;47.542;19.082;2022-11-10T16:22:31;101598.63;;;10.99;100.00
61014;BME280;46899;47.542;19.082;2022-11-10T16:25:52;101602.31;;;10.87;100.00
61014;BME280;46899;47.542;19.082;2022-11-10T16:29:14;101620.50;;;10.89;100.00
61014;BME280;46899;47.542;19.082;2022-11-10T16:32:36;101618.00;;;10.83;100.00
61014;BME280;46899;47.542;19.082;2022-11-10T16:35:57;101624.91;;;10.85;100.00
61014;BME280;46899;47.542;19.082;2022-11-10T16:39:17;101624.13;;;10.79;100.00
61014;BME280;46899;47.542;19.082;2022-11-10T16:42:39;101627.63;;;10.76;100.00
61014;BME280;46899;47.542;19.082;2022-11-10T16:46:02;101632.81;;;10.76;100.00
61014;BME280;46899;47.542;19.082;2022-11-10T16:49:26;101642.34;;;10.79;100.00
61014;BME280;46899;47.542;19.082;2022-11-10T16:52:48;101642.38;;;10.77;100.00
61014;BME280;46899;47.542;19.082;2022-11-10T16:56:18;101648.53;;;10.72;100.00
61014;BME280;46899;47.542;19.082;2022-11-10T16:59:40;101655.56;;;10.67;100.00
61014;BME280;46899;47.542;19.082;2022-11-10T17:03:08;101653.87;;;10.63;100.00
61014;BME280;46899;47.542;19.082;2022-11-10T17:06:31;101664.31;;;10.61;100.00
61014;BME280;46899;47.542;19.082;2022-11-10T17:09:52;101679.00;;;10.67;100.00
61014;BME280;46899;47.542;19.082;2022-11-10T17:13:13;101679.03;;;10.64;100.00
61014;BME280;46899;47.542;19.082;2022-11-10T17:16:34;101681.72;;;10.56;100.00
61014;BME280;46899;47.542;19.082;2022-11-10T17:19:56;101692.19;;;10.52;100.00
61014;BME280;46899;47.542;19.082;2022-11-10T17:23:19;101689.62;;;10.50;100.00
61014;BME280;46899;47.542;19.082;2022-11-10T17:26:41;101716.66;;;10.37;100.00
61014;BME280;46899;47.542;19.082;2022-11-10T17:30:02;101711.44;;;10.40;100.00
61014;BME280;46899;47.542;19.082;2022-11-10T17:33:23;101714.00;;;10.42;100.00
61014;BME280;46899;47.542;19.082;2022-11-10T17:36:45;101706.28;;;10.34;100.00
61014;BME280;46899;47.542;19.082;2022-11-10T17:40:17;101718.53;;;10.26;100.00
61014;BME280;46899;47.542;19.082;2022-11-10T17:43:38;101722.94;;;10.21;100.00
61014;BME280;46899;47.542;19.082;2022-11-10T17:47:05;101728.97;;;10.23;100.00
61014;BME280;46899;47.542;19.082;2022-11-10T17:50:25;101736.81;;;10.20;100.00
61014;BME280;46899;47.542;19.082;2022-11-10T17:53:46;101737.72;;;10.16;100.00
61014;BME280;46899;47.542;19.082;2022-11-10T17:57:08;101743.06;;;10.01;100.00
61014;BME280;46899;47.542;19.082;2022-11-10T18:00:29;101755.19;;;9.99;100.00
61014;BME280;46899;47.542;19.082;2022-11-10T18:03:50;101753.50;;;9.98;100.00
61014;BME280;46899;47.542;19.082;2022-11-10T18:07:10;101750.06;;;9.93;100.00
61014;BME280;46899;47.542;19.082;2022-11-10T18:10:31;101735.37;;;9.87;100.00
61014;BME280;46899;47.542;19.082;2022-11-10T18:13:52;101747.63;;;9.79;100.00
61014;BME280;46899;47.542;19.082;2022-11-10T18:17:13;101751.94;;;9.79;100.00
61014;BME280;46899;47.542;19.082;2022-11-10T18:20:33;101758.03;;;9.76;100.00
61014;BME280;46899;47.542;19.082;2022-11-10T18:23:55;101752.09;;;9.65;100.00
61014;BME280;46899;47.542;19.082;2022-11-10T18:27:15;101759.00;;;9.64;100.00
61014;BME280;46899;47.542;19.082;2022-11-10T18:30:36;101766.00;;;9.56;100.00
61014;BME280;46899;47.542;19.082;2022-11-10T18:33:57;101774.62;;;9.63;100.00
61014;BME280;46899;47.542;19.082;2022-11-10T18:37:18;101777.25;;;9.60;100.00
61014;BME280;46899;47.542;19.082;2022-11-10T18:40:40;101789.37;;;9.56;100.00
61014;BME280;46899;47.542;19.082;2022-11-10T18:44:01;101791.12;;;9.54;100.00
61014;BME280;46899;47.542;19.082;2022-11-10T18:47:22;101802.41;;;9.53;100.00
61014;BME280;46899;47.542;19.082;2022-11-10T18:50:43;101808.47;;;9.49;100.00
61014;BME280;46899;47.542;19.082;2022-11-10T18:54:03;101815.44;;;9.47;100.00
61014;BME280;46899;47.542;19.082;2022-11-10T18:57:24;101824.19;;;9.34;100.00
61014;BME280;46899;47.542;19.082;2022-11-10T19:00:45;101826.00;;;9.20;100.00
61014;BME280;46899;47.542;19.082;2022-11-10T19:04:06;101837.25;;;9.19;100.00
61014;BME280;46899;47.542;19.082;2022-11-10T19:07:27;101835.56;;;9.12;100.00
61014;BME280;46899;47.542;19.082;2022-11-10T19:10:48;101841.59;;;9.20;100.00